Αρχική σελίδα
METAR-TAF:

METAR-TAF

Αεροδρόμια :

Chapecó, Σάντα Καταρίνα, Βραζιλία

γεωγραφικό πλάτος: 27-08-02S, γεωγραφικό μήκος: 052-39-43W, υψόμετρο: 654 μ

Παρών καιρός

Η αναφορά έγινε 6 ώρες και 4 λεπτά πριν, στις 02:00 UTC
Άνεμος 6 kt από Α/BA
Θερμοκρασία 17°C
Υγρασία 88%
Πίεση 1023 hPa
Ορατότητα 10 χλμ και άνω
Δεν υπάρχουν νέφη με βάση κάτω από τα 1500 μ. και δεν υπάρχουν νέφη σωρειτομελανίτες.

METAR: SBCH 190200Z 07006KT CAVOK 17/15 Q1023

Χρόνος: 05:04 (08:04 UTC)


TAF: λείπει

Μετεωρολογικές αναφορές και προγνώσεις για περισσότερα από 4000 αεροδρόμια (δελτία METAR και TAF).

Οι διαθέσιμοι σταθμοί απεικονίζονται στο χάρτη με κίτρινες και κόκκινες κουκκίδες.

Μετακινήστε το ποντίκι πάνω από τις κουκκίδες για να δείτε το όνομα του σταθμού.

Στη συνέχεια, κάντε κλικ για να δείτε τις μετεωρολογικές αναφορές και τις προγνώσεις καιρού.

Για να αλλάξετε το χάρτη: κάντε κλικ στα πράσινα κουμπιά με τον μαύρο σταυρό για να ζουμάρετε, στο πράσινο κουμπί με την παύλα για να αφαιρέσετε το ζουμ ή στα πράσινα βέλη για να αντιπαραβάλλετε χάρτες.


METAR-TAF: